createdAt,value
2022-09-09T00:02:24.792Z,100816.63
2022-09-09T00:07:33.776Z,100818.06
2022-09-09T00:12:40.504Z,100818.69
2022-09-09T00:18:01.178Z,100819.75
2022-09-09T00:23:10.571Z,100814.34
2022-09-09T00:28:19.817Z,100818.06
2022-09-09T00:33:24.901Z,100819.31
2022-09-09T00:38:33.254Z,100817.88
2022-09-09T00:43:41.348Z,100805.25
2022-09-09T00:49:21.940Z,100803.78
2022-09-09T00:54:43.048Z,100795.72
2022-09-09T00:59:50.183Z,100792.22
2022-09-09T01:04:51.976Z,100793.84
2022-09-09T01:09:58.253Z,100798.00
2022-09-09T01:15:12.766Z,100799.22
2022-09-09T01:20:31.299Z,100806.91
2022-09-09T01:25:45.522Z,100795.53
2022-09-09T01:30:58.717Z,100791.78
2022-09-09T01:36:09.251Z,100790.78
2022-09-09T01:41:23.958Z,100791.59
2022-09-09T01:46:34.534Z,100792.59
2022-09-09T01:51:39.337Z,100788.09
2022-09-09T01:57:05.057Z,100781.47
2022-09-09T02:02:28.021Z,100775.25
2022-09-09T02:08:29.420Z,100778.53
2022-09-09T02:13:39.728Z,100769.44
2022-09-09T02:19:27.446Z,100768.41
2022-09-09T02:24:47.251Z,100768.41
2022-09-09T02:29:57.807Z,100758.88
2022-09-09T02:35:16.907Z,100750.38
2022-09-09T02:40:23.794Z,100751.22
2022-09-09T02:45:43.268Z,100745.44
2022-09-09T02:50:57.027Z,100755.56
2022-09-09T02:56:12.623Z,100751.44
2022-09-09T03:01:18.451Z,100755.56
2022-09-09T03:06:24.153Z,100758.88
2022-09-09T03:11:36.711Z,100769.81
2022-09-09T03:16:39.689Z,100769.81
2022-09-09T03:21:46.423Z,100779.75
2022-09-09T03:26:51.505Z,100782.63
2022-09-09T03:31:55.868Z,100781.00
2022-09-09T03:37:05.253Z,100777.50
2022-09-09T03:42:13.414Z,100774.81
2022-09-09T03:47:25.055Z,100773.31
2022-09-09T03:52:35.131Z,100777.25
2022-09-09T03:57:44.425Z,100769.81
2022-09-09T04:02:46.803Z,100781.34
2022-09-09T04:07:52.396Z,100781.56
2022-09-09T04:12:57.154Z,100779.06
2022-09-09T04:18:03.072Z,100787.56
2022-09-09T04:23:10.498Z,100790.03
2022-09-09T04:28:12.241Z,100790.72
2022-09-09T04:33:18.279Z,100791.13
2022-09-09T04:38:20.646Z,100797.53
2022-09-09T04:43:23.457Z,100801.06
2022-09-09T04:48:30.267Z,100790.31
2022-09-09T04:53:32.417Z,100803.13
2022-09-09T04:58:37.350Z,100803.78
2022-09-09T05:03:40.434Z,100803.97
2022-09-09T05:08:49.199Z,100807.28
2022-09-09T05:13:59.496Z,100815.97
2022-09-09T05:19:04.699Z,100824.84
2022-09-09T05:24:21.051Z,100820.09
2022-09-09T05:29:29.530Z,100819.09
2022-09-09T05:34:40.382Z,100814.94
2022-09-09T05:39:45.598Z,100824.25
2022-09-09T05:44:55.354Z,100824.06
2022-09-09T05:50:02.496Z,100819.50
2022-09-09T05:55:05.594Z,100823.00
2022-09-09T06:00:13.383Z,100824.47
2022-09-09T06:05:28.353Z,100831.72
2022-09-09T06:10:32.668Z,100832.75
2022-09-09T06:15:36.911Z,100841.03
2022-09-09T06:20:43.519Z,100847.66
2022-09-09T06:25:47.824Z,100843.72
2022-09-09T06:30:59.552Z,100852.47
2022-09-09T06:36:03.021Z,100852.66
2022-09-09T06:41:09.667Z,100850.38
2022-09-09T06:46:23.445Z,100851.41
2022-09-09T06:51:35.045Z,100846.84
2022-09-09T06:56:42.903Z,100852.66
2022-09-09T07:01:55.991Z,100861.34
2022-09-09T07:06:59.920Z,100854.28
2022-09-09T07:12:07.313Z,100855.78
2022-09-09T07:17:14.158Z,100863.41
2022-09-09T07:22:18.231Z,100852.22
2022-09-09T07:27:22.861Z,100861.97
2022-09-09T07:32:26.965Z,100866.28
2022-09-09T07:37:31.158Z,100867.78
2022-09-09T07:42:33.216Z,100869.00
2022-09-09T07:47:38.566Z,100862.13
2022-09-09T07:52:40.414Z,100870.78
2022-09-09T07:57:45.415Z,100882.97
2022-09-09T08:02:47.831Z,100887.47
2022-09-09T08:07:49.731Z,100883.63
2022-09-09T08:13:14.655Z,100890.59
2022-09-09T08:18:15.740Z,100892.66
2022-09-09T08:23:20.005Z,100883.91
2022-09-09T08:28:22.873Z,100884.66
2022-09-09T08:33:29.522Z,100895.22
2022-09-09T08:38:31.504Z,100882.13
2022-09-09T08:43:37.043Z,100893.69
2022-09-09T08:48:48.565Z,100887.19
2022-09-09T08:53:53.615Z,100889.91
2022-09-09T08:59:03.743Z,100890.16
2022-09-09T09:04:39.740Z,100893.97
2022-09-09T09:09:47.838Z,100899.03
2022-09-09T09:14:53.245Z,100898.28
2022-09-09T09:20:00.723Z,100908.31
2022-09-09T09:25:25.174Z,100898.34
2022-09-09T09:30:53.571Z,100904.66
2022-09-09T09:35:57.816Z,100906.88
2022-09-09T09:41:02.940Z,100904.97
2022-09-09T09:46:17.188Z,100902.31
2022-09-09T09:51:22.062Z,100906.06
2022-09-09T09:56:30.187Z,100897.38
2022-09-09T10:01:36.506Z,100906.91
2022-09-09T10:06:45.547Z,100918.72
2022-09-09T10:12:10.573Z,100918.03
2022-09-09T10:17:41.227Z,100916.63
2022-09-09T10:23:07.216Z,100911.50
2022-09-09T10:28:19.149Z,100911.47
2022-09-09T10:33:37.195Z,100913.31
2022-09-09T10:38:44.460Z,100909.41
2022-09-09T10:44:08.188Z,100916.47
2022-09-09T10:49:25.489Z,100907.72
2022-09-09T10:54:36.087Z,100905.06
2022-09-09T10:59:49.000Z,100909.88
2022-09-09T11:04:55.295Z,100911.84
2022-09-09T11:10:04.774Z,100916.69
2022-09-09T11:15:24.990Z,100909.13
2022-09-09T11:20:29.584Z,100908.53
2022-09-09T11:25:41.730Z,100905.53
2022-09-09T11:30:56.722Z,100910.47
2022-09-09T11:36:32.339Z,100913.16
2022-09-09T11:41:38.528Z,100924.38
2022-09-09T11:46:42.351Z,100911.28
2022-09-09T11:51:44.415Z,100910.53
2022-09-09T11:56:57.600Z,100899.66
2022-09-09T12:02:10.163Z,100901.72
2022-09-09T12:07:35.505Z,100909.03
2022-09-09T12:12:44.209Z,100912.69
2022-09-09T12:17:51.563Z,100907.22
2022-09-09T12:23:04.769Z,100905.78
2022-09-09T12:28:28.879Z,100913.66
2022-09-09T12:33:44.279Z,100920.41
2022-09-09T12:38:48.916Z,100926.19
2022-09-09T12:43:51.685Z,100935.56
2022-09-09T12:48:55.364Z,100922.94
2022-09-09T12:53:58.050Z,100911.28
2022-09-09T12:59:02.242Z,100906.31
2022-09-09T13:04:21.235Z,100912.94
2022-09-09T13:09:25.674Z,100909.19
2022-09-09T13:14:33.616Z,100901.72
2022-09-09T13:19:39.890Z,100903.50
2022-09-09T13:24:43.557Z,100911.50
2022-09-09T13:29:53.420Z,100901.72
2022-09-09T13:35:00.459Z,100909.06
2022-09-09T13:40:08.019Z,100909.88
2022-09-09T13:45:21.509Z,100920.63
2022-09-09T13:50:27.357Z,100920.97
2022-09-09T13:55:31.125Z,100922.63
2022-09-09T14:00:35.852Z,100919.09
2022-09-09T14:05:40.677Z,100922.63
2022-09-09T14:10:45.187Z,100942.56
2022-09-09T14:15:49.221Z,100925.34
2022-09-09T14:20:51.358Z,100921.69
2022-09-09T14:25:57.665Z,100926.38
2022-09-09T14:31:04.938Z,100920.72
2022-09-09T14:36:10.388Z,100909.66
2022-09-09T14:41:23.619Z,100915.31
2022-09-09T14:46:27.689Z,100913.53
2022-09-09T14:51:30.831Z,100919.06
2022-09-09T14:56:35.522Z,100908.44
2022-09-09T15:01:37.270Z,100914.69
2022-09-09T15:06:40.284Z,100918.34
2022-09-09T15:11:45.380Z,100901.75
2022-09-09T15:16:50.971Z,100906.72
2022-09-09T15:21:52.679Z,100918.22
2022-09-09T15:26:54.843Z,100908.56
2022-09-09T15:32:00.133Z,100901.00
2022-09-09T15:37:16.358Z,100898.00
2022-09-09T15:42:18.108Z,100897.88
2022-09-09T15:47:20.960Z,100893.59
2022-09-09T15:52:24.835Z,100895.75
2022-09-09T15:57:29.004Z,100887.25
2022-09-09T16:02:31.814Z,100891.09
2022-09-09T16:07:36.873Z,100892.53
2022-09-09T16:12:42.978Z,100913.50
2022-09-09T16:17:47.210Z,100910.88
2022-09-09T16:22:48.934Z,100902.41
2022-09-09T16:27:50.613Z,100910.81
2022-09-09T16:32:54.377Z,100917.22
2022-09-09T16:37:58.244Z,100924.66
2022-09-09T16:43:02.338Z,100941.00
2022-09-09T16:48:05.118Z,100943.25
2022-09-09T16:53:10.700Z,100955.97
2022-09-09T16:58:15.480Z,100948.88
2022-09-09T17:03:17.644Z,100957.25
2022-09-09T17:08:20.609Z,100964.03
2022-09-09T17:13:23.282Z,100967.47
2022-09-09T17:18:29.100Z,100961.84
2022-09-09T17:23:35.744Z,100962.84
2022-09-09T17:28:41.458Z,100959.38
2022-09-09T17:33:48.960Z,100963.84
2022-09-09T17:38:53.556Z,100969.69
2022-09-09T17:43:58.212Z,100969.53
2022-09-09T17:49:03.971Z,100984.81
2022-09-09T17:54:10.074Z,100984.06
2022-09-09T17:59:18.710Z,100994.19
2022-09-09T18:04:23.591Z,101003.19
2022-09-09T18:09:30.812Z,100993.19
2022-09-09T18:14:35.106Z,100988.63
2022-09-09T18:19:39.505Z,100989.00
2022-09-09T18:24:48.146Z,100992.91
2022-09-09T18:29:49.950Z,100990.00
2022-09-09T18:34:55.585Z,100985.19
2022-09-09T18:39:59.819Z,100984.38
2022-09-09T18:45:02.645Z,100969.38
2022-09-09T18:50:09.562Z,100967.16
2022-09-09T18:55:13.656Z,100961.94
2022-09-09T19:00:15.565Z,100967.59
2022-09-09T19:05:20.134Z,100966.63
2022-09-09T19:10:21.990Z,100978.09
2022-09-09T19:15:24.651Z,100968.38
2022-09-09T19:20:28.702Z,100980.88
2022-09-09T19:25:37.473Z,100978.44
2022-09-09T19:30:40.347Z,100987.31
2022-09-09T19:35:42.085Z,100997.63
2022-09-09T19:40:52.558Z,100991.25
2022-09-09T19:46:02.532Z,100990.50
2022-09-09T19:51:23.874Z,100992.22
2022-09-09T19:56:33.016Z,101012.66
2022-09-09T20:01:40.459Z,101006.47
2022-09-09T20:06:44.132Z,101007.94
2022-09-09T20:11:48.245Z,101019.38
2022-09-09T20:16:54.809Z,101015.06
2022-09-09T20:21:56.546Z,101017.97
2022-09-09T20:27:07.211Z,101018.19
2022-09-09T20:32:12.110Z,101015.09
2022-09-09T20:37:17.650Z,101015.50
2022-09-09T20:42:21.750Z,101021.34
2022-09-09T20:47:26.523Z,101016.97
2022-09-09T20:52:30.745Z,101026.75
2022-09-09T20:57:38.330Z,101032.34
2022-09-09T21:02:40.301Z,101030.50
2022-09-09T21:07:42.602Z,101018.91
2022-09-09T21:12:45.093Z,101023.88
2022-09-09T21:17:46.793Z,101027.41
2022-09-09T21:22:54.486Z,101023.28
2022-09-09T21:27:59.968Z,101026.22
2022-09-09T21:33:09.748Z,101029.13
2022-09-09T21:38:17.393Z,101028.31
2022-09-09T21:43:20.505Z,101032.88
2022-09-09T21:48:23.799Z,101037.00
2022-09-09T21:53:27.917Z,101040.97
2022-09-09T21:58:32.160Z,101036.63
2022-09-09T22:03:42.496Z,101039.53
2022-09-09T22:08:47.227Z,101039.09
2022-09-09T22:13:53.369Z,101040.16
2022-09-09T22:18:59.360Z,101040.16
2022-09-09T22:24:02.917Z,101041.78
2022-09-09T22:29:12.142Z,101040.16
2022-09-09T22:34:16.105Z,101037.44
2022-09-09T22:39:17.768Z,101045.34
2022-09-09T22:44:29.486Z,101041.78
2022-09-09T22:49:34.105Z,101045.97
2022-09-09T22:54:41.380Z,101044.50
2022-09-09T22:59:43.121Z,101048.44
2022-09-09T23:04:46.063Z,101045.56
2022-09-09T23:09:51.077Z,101051.38
2022-09-09T23:14:56.820Z,101049.06
2022-09-09T23:20:04.902Z,101055.72
2022-09-09T23:25:07.456Z,101049.50
2022-09-09T23:30:11.080Z,101054.47
2022-09-09T23:35:12.881Z,101047.63
2022-09-09T23:40:22.966Z,101052.41
2022-09-09T23:45:24.660Z,101055.91
2022-09-09T23:50:32.341Z,101054.66
2022-09-09T23:55:39.743Z,101055.91
